sensor_id;sensor_type;location;lat;lon;timestamp;P1;durP1;ratioP1;P2;durP2;ratioP2
28762;SDS011;15918;51.270;6.522;2023-04-25T00:01:03;17.80;;;6.78;;
28762;SDS011;15918;51.270;6.522;2023-04-25T00:03:34;18.00;;;6.25;;
28762;SDS011;15918;51.270;6.522;2023-04-25T00:06:00;18.67;;;7.07;;
28762;SDS011;15918;51.270;6.522;2023-04-25T00:08:27;18.52;;;7.13;;
28762;SDS011;15918;51.270;6.522;2023-04-25T00:10:53;16.05;;;6.22;;
28762;SDS011;15918;51.270;6.522;2023-04-25T00:13:19;19.15;;;6.88;;
28762;SDS011;15918;51.270;6.522;2023-04-25T00:15:45;16.70;;;6.13;;
28762;SDS011;15918;51.270;6.522;2023-04-25T00:18:11;16.83;;;5.93;;
28762;SDS011;15918;51.270;6.522;2023-04-25T00:20:37;16.48;;;6.20;;
28762;SDS011;15918;51.270;6.522;2023-04-25T00:23:02;18.48;;;6.63;;
28762;SDS011;15918;51.270;6.522;2023-04-25T00:25:28;20.25;;;6.78;;
28762;SDS011;15918;51.270;6.522;2023-04-25T00:27:54;15.23;;;6.65;;
28762;SDS011;15918;51.270;6.522;2023-04-25T00:30:20;13.57;;;7.03;;
28762;SDS011;15918;51.270;6.522;2023-04-25T00:32:45;16.30;;;6.93;;
28762;SDS011;15918;51.270;6.522;2023-04-25T00:35:11;18.65;;;6.25;;
28762;SDS011;15918;51.270;6.522;2023-04-25T00:37:36;15.55;;;5.78;;
28762;SDS011;15918;51.270;6.522;2023-04-25T00:40:04;16.20;;;6.65;;
28762;SDS011;15918;51.270;6.522;2023-04-25T00:42:31;13.63;;;6.68;;
28762;SDS011;15918;51.270;6.522;2023-04-25T00:44:58;15.40;;;6.00;;
28762;SDS011;15918;51.270;6.522;2023-04-25T00:47:24;17.20;;;6.07;;
28762;SDS011;15918;51.270;6.522;2023-04-25T00:49:50;20.52;;;6.60;;
28762;SDS011;15918;51.270;6.522;2023-04-25T00:52:18;16.02;;;6.03;;
28762;SDS011;15918;51.270;6.522;2023-04-25T00:54:44;12.48;;;5.50;;
28762;SDS011;15918;51.270;6.522;2023-04-25T00:57:10;16.05;;;6.40;;
28762;SDS011;15918;51.270;6.522;2023-04-25T00:59:36;19.60;;;7.20;;
28762;SDS011;15918;51.270;6.522;2023-04-25T01:02:02;20.98;;;6.78;;
28762;SDS011;15918;51.270;6.522;2023-04-25T01:04:28;15.82;;;6.60;;
28762;SDS011;15918;51.270;6.522;2023-04-25T01:06:54;12.77;;;6.25;;
28762;SDS011;15918;51.270;6.522;2023-04-25T01:09:20;16.40;;;6.20;;
28762;SDS011;15918;51.270;6.522;2023-04-25T01:11:47;18.60;;;6.35;;
28762;SDS011;15918;51.270;6.522;2023-04-25T01:14:13;18.13;;;6.65;;
28762;SDS011;15918;51.270;6.522;2023-04-25T01:16:39;12.70;;;6.18;;
28762;SDS011;15918;51.270;6.522;2023-04-25T01:19:07;13.82;;;5.97;;
28762;SDS011;15918;51.270;6.522;2023-04-25T01:21:37;12.98;;;6.55;;
28762;SDS011;15918;51.270;6.522;2023-04-25T01:24:03;13.88;;;6.65;;
28762;SDS011;15918;51.270;6.522;2023-04-25T01:26:30;14.40;;;6.47;;
28762;SDS011;15918;51.270;6.522;2023-04-25T01:28:56;12.55;;;5.53;;
28762;SDS011;15918;51.270;6.522;2023-04-25T01:31:22;15.20;;;5.65;;
28762;SDS011;15918;51.270;6.522;2023-04-25T01:33:48;13.10;;;5.72;;
28762;SDS011;15918;51.270;6.522;2023-04-25T01:36:14;15.18;;;6.85;;
28762;SDS011;15918;51.270;6.522;2023-04-25T01:38:40;12.63;;;5.65;;
28762;SDS011;15918;51.270;6.522;2023-04-25T01:41:06;15.98;;;5.68;;
28762;SDS011;15918;51.270;6.522;2023-04-25T01:43:32;13.98;;;5.43;;
28762;SDS011;15918;51.270;6.522;2023-04-25T01:45:58;12.50;;;5.43;;
28762;SDS011;15918;51.270;6.522;2023-04-25T01:48:24;10.02;;;5.20;;
28762;SDS011;15918;51.270;6.522;2023-04-25T01:50:50;9.13;;;5.18;;
28762;SDS011;15918;51.270;6.522;2023-04-25T01:53:16;11.30;;;4.90;;
28762;SDS011;15918;51.270;6.522;2023-04-25T01:55:42;17.60;;;5.68;;
28762;SDS011;15918;51.270;6.522;2023-04-25T01:58:07;12.68;;;4.60;;
28762;SDS011;15918;51.270;6.522;2023-04-25T02:00:38;13.98;;;4.72;;
28762;SDS011;15918;51.270;6.522;2023-04-25T02:03:04;10.23;;;4.55;;
28762;SDS011;15918;51.270;6.522;2023-04-25T02:05:37;10.90;;;4.35;;
28762;SDS011;15918;51.270;6.522;2023-04-25T02:08:04;9.05;;;4.30;;
28762;SDS011;15918;51.270;6.522;2023-04-25T02:10:31;12.60;;;3.88;;
28762;SDS011;15918;51.270;6.522;2023-04-25T02:12:57;8.80;;;4.25;;
28762;SDS011;15918;51.270;6.522;2023-04-25T02:15:23;11.13;;;4.50;;
28762;SDS011;15918;51.270;6.522;2023-04-25T02:17:48;12.82;;;5.15;;
28762;SDS011;15918;51.270;6.522;2023-04-25T02:20:14;9.80;;;4.05;;
28762;SDS011;15918;51.270;6.522;2023-04-25T02:22:41;14.85;;;4.70;;
28762;SDS011;15918;51.270;6.522;2023-04-25T02:25:07;9.75;;;4.60;;
28762;SDS011;15918;51.270;6.522;2023-04-25T02:27:34;18.88;;;5.15;;
28762;SDS011;15918;51.270;6.522;2023-04-25T02:30:00;10.85;;;4.93;;
28762;SDS011;15918;51.270;6.522;2023-04-25T02:32:25;10.90;;;4.45;;
28762;SDS011;15918;51.270;6.522;2023-04-25T02:34:51;11.35;;;5.15;;
28762;SDS011;15918;51.270;6.522;2023-04-25T02:37:17;14.85;;;5.35;;
28762;SDS011;15918;51.270;6.522;2023-04-25T02:39:43;17.73;;;6.28;;
28762;SDS011;15918;51.270;6.522;2023-04-25T02:42:08;14.63;;;5.40;;
28762;SDS011;15918;51.270;6.522;2023-04-25T02:44:34;15.60;;;5.55;;
28762;SDS011;15918;51.270;6.522;2023-04-25T02:47:00;11.40;;;4.60;;
28762;SDS011;15918;51.270;6.522;2023-04-25T02:49:25;16.17;;;5.47;;
28762;SDS011;15918;51.270;6.522;2023-04-25T02:51:51;13.95;;;5.30;;
28762;SDS011;15918;51.270;6.522;2023-04-25T02:54:16;13.90;;;5.03;;
28762;SDS011;15918;51.270;6.522;2023-04-25T02:56:42;10.18;;;5.07;;
28762;SDS011;15918;51.270;6.522;2023-04-25T02:59:07;15.63;;;5.70;;
28762;SDS011;15918;51.270;6.522;2023-04-25T03:01:33;12.23;;;4.88;;
28762;SDS011;15918;51.270;6.522;2023-04-25T03:03:58;12.50;;;5.35;;
28762;SDS011;15918;51.270;6.522;2023-04-25T03:06:24;11.48;;;5.50;;
28762;SDS011;15918;51.270;6.522;2023-04-25T03:08:50;12.82;;;5.15;;
28762;SDS011;15918;51.270;6.522;2023-04-25T03:11:15;11.63;;;5.38;;
28762;SDS011;15918;51.270;6.522;2023-04-25T03:13:41;14.93;;;5.72;;
28762;SDS011;15918;51.270;6.522;2023-04-25T03:16:06;16.73;;;5.35;;
28762;SDS011;15918;51.270;6.522;2023-04-25T03:18:32;15.80;;;5.78;;
28762;SDS011;15918;51.270;6.522;2023-04-25T03:20:58;13.60;;;5.38;;
28762;SDS011;15918;51.270;6.522;2023-04-25T03:23:23;12.75;;;5.40;;
28762;SDS011;15918;51.270;6.522;2023-04-25T03:25:49;13.02;;;5.43;;
28762;SDS011;15918;51.270;6.522;2023-04-25T03:28:15;14.27;;;5.75;;
28762;SDS011;15918;51.270;6.522;2023-04-25T03:30:40;14.30;;;5.57;;
28762;SDS011;15918;51.270;6.522;2023-04-25T03:33:06;11.00;;;5.47;;
28762;SDS011;15918;51.270;6.522;2023-04-25T03:35:32;11.02;;;5.43;;
28762;SDS011;15918;51.270;6.522;2023-04-25T03:37:57;12.02;;;5.82;;
28762;SDS011;15918;51.270;6.522;2023-04-25T03:40:23;13.63;;;5.05;;
28762;SDS011;15918;51.270;6.522;2023-04-25T03:42:49;16.48;;;5.88;;
28762;SDS011;15918;51.270;6.522;2023-04-25T03:45:15;12.55;;;5.45;;
28762;SDS011;15918;51.270;6.522;2023-04-25T03:47:40;16.50;;;5.55;;
28762;SDS011;15918;51.270;6.522;2023-04-25T03:50:06;14.65;;;5.55;;
28762;SDS011;15918;51.270;6.522;2023-04-25T03:52:32;15.90;;;6.47;;
28762;SDS011;15918;51.270;6.522;2023-04-25T03:54:57;13.90;;;6.20;;
28762;SDS011;15918;51.270;6.522;2023-04-25T03:57:23;11.98;;;6.63;;
28762;SDS011;15918;51.270;6.522;2023-04-25T03:59:48;15.13;;;6.18;;
28762;SDS011;15918;51.270;6.522;2023-04-25T04:02:14;17.58;;;6.35;;
28762;SDS011;15918;51.270;6.522;2023-04-25T04:04:40;13.85;;;6.00;;
28762;SDS011;15918;51.270;6.522;2023-04-25T04:07:05;14.57;;;5.88;;
28762;SDS011;15918;51.270;6.522;2023-04-25T04:09:31;15.20;;;5.78;;
28762;SDS011;15918;51.270;6.522;2023-04-25T04:11:57;11.88;;;5.85;;
28762;SDS011;15918;51.270;6.522;2023-04-25T04:14:22;18.27;;;6.82;;
28762;SDS011;15918;51.270;6.522;2023-04-25T04:16:48;16.25;;;5.35;;
28762;SDS011;15918;51.270;6.522;2023-04-25T04:19:13;15.05;;;6.30;;
28762;SDS011;15918;51.270;6.522;2023-04-25T04:21:39;13.43;;;5.75;;
28762;SDS011;15918;51.270;6.522;2023-04-25T04:24:05;17.70;;;6.22;;
28762;SDS011;15918;51.270;6.522;2023-04-25T04:26:31;20.23;;;6.20;;
28762;SDS011;15918;51.270;6.522;2023-04-25T04:28:57;17.00;;;5.85;;
28762;SDS011;15918;51.270;6.522;2023-04-25T04:31:24;19.30;;;6.25;;
28762;SDS011;15918;51.270;6.522;2023-04-25T04:33:49;15.90;;;6.20;;
28762;SDS011;15918;51.270;6.522;2023-04-25T04:36:15;19.60;;;6.45;;
28762;SDS011;15918;51.270;6.522;2023-04-25T04:38:44;15.93;;;5.80;;
28762;SDS011;15918;51.270;6.522;2023-04-25T04:41:10;16.98;;;6.32;;
28762;SDS011;15918;51.270;6.522;2023-04-25T04:43:36;12.90;;;6.15;;
28762;SDS011;15918;51.270;6.522;2023-04-25T04:46:01;14.38;;;5.85;;
28762;SDS011;15918;51.270;6.522;2023-04-25T04:48:29;19.15;;;6.35;;
28762;SDS011;15918;51.270;6.522;2023-04-25T04:50:58;16.25;;;6.47;;
28762;SDS011;15918;51.270;6.522;2023-04-25T04:53:23;13.88;;;6.47;;
28762;SDS011;15918;51.270;6.522;2023-04-25T04:55:49;19.40;;;6.90;;
28762;SDS011;15918;51.270;6.522;2023-04-25T04:58:15;22.60;;;6.80;;
28762;SDS011;15918;51.270;6.522;2023-04-25T05:00:40;14.57;;;6.63;;
28762;SDS011;15918;51.270;6.522;2023-04-25T05:03:06;17.40;;;6.03;;
28762;SDS011;15918;51.270;6.522;2023-04-25T05:05:32;19.55;;;6.80;;
28762;SDS011;15918;51.270;6.522;2023-04-25T05:07:57;18.83;;;6.97;;
28762;SDS011;15918;51.270;6.522;2023-04-25T05:10:23;19.92;;;6.97;;
28762;SDS011;15918;51.270;6.522;2023-04-25T05:12:49;19.60;;;6.78;;
28762;SDS011;15918;51.270;6.522;2023-04-25T05:15:14;24.20;;;7.55;;
28762;SDS011;15918;51.270;6.522;2023-04-25T05:17:40;20.77;;;7.10;;
28762;SDS011;15918;51.270;6.522;2023-04-25T05:20:06;22.92;;;8.13;;
28762;SDS011;15918;51.270;6.522;2023-04-25T05:22:34;23.13;;;7.80;;
28762;SDS011;15918;51.270;6.522;2023-04-25T05:25:00;19.73;;;6.97;;
28762;SDS011;15918;51.270;6.522;2023-04-25T05:27:26;18.67;;;7.45;;
28762;SDS011;15918;51.270;6.522;2023-04-25T05:29:51;17.88;;;6.97;;
28762;SDS011;15918;51.270;6.522;2023-04-25T05:32:17;20.92;;;7.97;;
28762;SDS011;15918;51.270;6.522;2023-04-25T05:34:43;19.67;;;6.55;;
28762;SDS011;15918;51.270;6.522;2023-04-25T05:37:09;21.33;;;7.00;;
28762;SDS011;15918;51.270;6.522;2023-04-25T05:39:34;18.65;;;7.47;;
28762;SDS011;15918;51.270;6.522;2023-04-25T05:42:00;20.25;;;7.45;;
28762;SDS011;15918;51.270;6.522;2023-04-25T05:44:26;19.45;;;7.88;;
28762;SDS011;15918;51.270;6.522;2023-04-25T05:46:52;15.23;;;7.10;;
28762;SDS011;15918;51.270;6.522;2023-04-25T05:49:17;19.65;;;7.45;;
28762;SDS011;15918;51.270;6.522;2023-04-25T05:51:43;17.40;;;6.63;;
28762;SDS011;15918;51.270;6.522;2023-04-25T05:54:08;20.33;;;7.15;;
28762;SDS011;15918;51.270;6.522;2023-04-25T05:56:34;21.08;;;6.90;;
28762;SDS011;15918;51.270;6.522;2023-04-25T05:59:00;18.83;;;6.70;;
28762;SDS011;15918;51.270;6.522;2023-04-25T06:01:26;19.05;;;6.22;;
28762;SDS011;15918;51.270;6.522;2023-04-25T06:03:51;21.38;;;6.20;;
28762;SDS011;15918;51.270;6.522;2023-04-25T06:06:17;16.58;;;5.55;;
28762;SDS011;15918;51.270;6.522;2023-04-25T06:08:43;16.25;;;5.63;;
28762;SDS011;15918;51.270;6.522;2023-04-25T06:11:09;20.35;;;5.93;;
28762;SDS011;15918;51.270;6.522;2023-04-25T06:13:35;16.80;;;5.95;;
28762;SDS011;15918;51.270;6.522;2023-04-25T06:16:01;18.38;;;5.95;;
28762;SDS011;15918;51.270;6.522;2023-04-25T06:18:26;15.52;;;5.32;;
28762;SDS011;15918;51.270;6.522;2023-04-25T06:20:52;18.83;;;5.38;;
28762;SDS011;15918;51.270;6.522;2023-04-25T06:23:18;19.92;;;6.45;;
28762;SDS011;15918;51.270;6.522;2023-04-25T06:25:43;20.15;;;5.65;;
28762;SDS011;15918;51.270;6.522;2023-04-25T06:28:09;16.27;;;5.85;;
28762;SDS011;15918;51.270;6.522;2023-04-25T06:30:34;17.20;;;5.60;;
28762;SDS011;15918;51.270;6.522;2023-04-25T06:33:00;12.35;;;5.43;;
28762;SDS011;15918;51.270;6.522;2023-04-25T06:35:25;16.35;;;5.25;;
28762;SDS011;15918;51.270;6.522;2023-04-25T06:37:51;18.30;;;5.13;;
28762;SDS011;15918;51.270;6.522;2023-04-25T06:40:16;20.20;;;6.10;;
28762;SDS011;15918;51.270;6.522;2023-04-25T06:42:42;15.60;;;5.03;;
28762;SDS011;15918;51.270;6.522;2023-04-25T06:45:08;23.05;;;6.63;;
28762;SDS011;15918;51.270;6.522;2023-04-25T06:47:34;19.67;;;5.55;;
28762;SDS011;15918;51.270;6.522;2023-04-25T06:50:00;16.50;;;6.10;;
28762;SDS011;15918;51.270;6.522;2023-04-25T06:52:25;17.35;;;5.47;;
28762;SDS011;15918;51.270;6.522;2023-04-25T06:54:51;15.48;;;5.65;;
28762;SDS011;15918;51.270;6.522;2023-04-25T06:57:16;21.25;;;5.82;;
28762;SDS011;15918;51.270;6.522;2023-04-25T06:59:42;24.83;;;6.40;;
28762;SDS011;15918;51.270;6.522;2023-04-25T07:02:08;20.73;;;6.05;;
28762;SDS011;15918;51.270;6.522;2023-04-25T07:04:33;17.00;;;5.90;;
28762;SDS011;15918;51.270;6.522;2023-04-25T07:06:59;21.30;;;6.30;;
28762;SDS011;15918;51.270;6.522;2023-04-25T07:09:27;13.15;;;5.05;;
28762;SDS011;15918;51.270;6.522;2023-04-25T07:11:53;16.42;;;5.15;;
28762;SDS011;15918;51.270;6.522;2023-04-25T07:14:18;15.70;;;5.18;;
28762;SDS011;15918;51.270;6.522;2023-04-25T07:16:44;18.65;;;5.07;;
28762;SDS011;15918;51.270;6.522;2023-04-25T07:19:10;20.65;;;5.32;;
28762;SDS011;15918;51.270;6.522;2023-04-25T07:21:35;15.90;;;4.68;;
28762;SDS011;15918;51.270;6.522;2023-04-25T07:24:01;17.17;;;5.63;;
28762;SDS011;15918;51.270;6.522;2023-04-25T07:26:27;14.77;;;4.65;;
28762;SDS011;15918;51.270;6.522;2023-04-25T07:28:52;24.38;;;6.35;;
28762;SDS011;15918;51.270;6.522;2023-04-25T07:31:19;15.85;;;4.97;;
28762;SDS011;15918;51.270;6.522;2023-04-25T07:33:45;22.38;;;5.53;;
28762;SDS011;15918;51.270;6.522;2023-04-25T07:36:11;17.85;;;5.60;;
28762;SDS011;15918;51.270;6.522;2023-04-25T07:38:37;21.85;;;5.65;;
28762;SDS011;15918;51.270;6.522;2023-04-25T07:41:03;12.52;;;4.55;;
28762;SDS011;15918;51.270;6.522;2023-04-25T07:43:29;11.50;;;4.50;;
28762;SDS011;15918;51.270;6.522;2023-04-25T07:45:55;26.25;;;5.60;;
28762;SDS011;15918;51.270;6.522;2023-04-25T07:48:21;20.45;;;4.72;;
28762;SDS011;15918;51.270;6.522;2023-04-25T07:50:47;14.55;;;4.43;;
28762;SDS011;15918;51.270;6.522;2023-04-25T07:53:13;18.17;;;4.82;;
28762;SDS011;15918;51.270;6.522;2023-04-25T07:55:38;19.13;;;4.78;;
28762;SDS011;15918;51.270;6.522;2023-04-25T07:58:08;20.88;;;4.93;;
28762;SDS011;15918;51.270;6.522;2023-04-25T08:00:34;18.90;;;5.40;;
28762;SDS011;15918;51.270;6.522;2023-04-25T08:03:00;13.02;;;4.30;;
28762;SDS011;15918;51.270;6.522;2023-04-25T08:05:26;17.10;;;4.00;;
28762;SDS011;15918;51.270;6.522;2023-04-25T08:07:52;14.52;;;3.85;;
28762;SDS011;15918;51.270;6.522;2023-04-25T08:10:17;11.88;;;4.78;;
28762;SDS011;15918;51.270;6.522;2023-04-25T08:12:43;13.60;;;3.90;;
28762;SDS011;15918;51.270;6.522;2023-04-25T08:15:08;11.98;;;4.13;;
28762;SDS011;15918;51.270;6.522;2023-04-25T08:17:34;14.57;;;4.88;;
28762;SDS011;15918;51.270;6.522;2023-04-25T08:20:00;12.35;;;3.95;;
28762;SDS011;15918;51.270;6.522;2023-04-25T08:22:28;10.45;;;3.47;;
28762;SDS011;15918;51.270;6.522;2023-04-25T08:24:54;17.42;;;4.50;;
28762;SDS011;15918;51.270;6.522;2023-04-25T08:27:20;13.98;;;4.85;;
28762;SDS011;15918;51.270;6.522;2023-04-25T08:29:46;11.05;;;4.15;;
28762;SDS011;15918;51.270;6.522;2023-04-25T08:32:12;16.48;;;4.63;;
28762;SDS011;15918;51.270;6.522;2023-04-25T08:34:37;13.13;;;3.58;;
28762;SDS011;15918;51.270;6.522;2023-04-25T08:37:06;12.00;;;3.58;;
28762;SDS011;15918;51.270;6.522;2023-04-25T08:39:33;12.90;;;3.33;;
28762;SDS011;15918;51.270;6.522;2023-04-25T08:41:59;8.95;;;2.97;;
28762;SDS011;15918;51.270;6.522;2023-04-25T08:44:25;11.60;;;3.55;;
28762;SDS011;15918;51.270;6.522;2023-04-25T08:46:52;12.40;;;3.65;;
28762;SDS011;15918;51.270;6.522;2023-04-25T08:49:18;10.20;;;3.28;;
28762;SDS011;15918;51.270;6.522;2023-04-25T08:51:44;16.60;;;4.22;;
28762;SDS011;15918;51.270;6.522;2023-04-25T08:54:12;18.10;;;3.78;;
28762;SDS011;15918;51.270;6.522;2023-04-25T08:56:40;12.30;;;3.10;;
28762;SDS011;15918;51.270;6.522;2023-04-25T08:59:08;10.65;;;3.33;;
28762;SDS011;15918;51.270;6.522;2023-04-25T09:01:35;15.15;;;3.85;;
28762;SDS011;15918;51.270;6.522;2023-04-25T09:04:01;10.73;;;3.50;;
28762;SDS011;15918;51.270;6.522;2023-04-25T09:06:28;11.57;;;3.30;;
28762;SDS011;15918;51.270;6.522;2023-04-25T09:08:55;16.63;;;3.20;;
28762;SDS011;15918;51.270;6.522;2023-04-25T09:11:30;14.02;;;2.85;;
28762;SDS011;15918;51.270;6.522;2023-04-25T09:14:15;15.35;;;3.20;;
28762;SDS011;15918;51.270;6.522;2023-04-25T09:19:23;11.27;;;2.88;;
28762;SDS011;15918;51.270;6.522;2023-04-25T09:21:50;11.15;;;2.83;;
28762;SDS011;15918;51.270;6.522;2023-04-25T09:24:33;13.48;;;3.20;;
28762;SDS011;15918;51.270;6.522;2023-04-25T09:27:00;9.27;;;2.75;;
28762;SDS011;15918;51.270;6.522;2023-04-25T09:29:38;13.30;;;2.92;;
28762;SDS011;15918;51.270;6.522;2023-04-25T09:34:41;7.13;;;2.30;;
28762;SDS011;15918;51.270;6.522;2023-04-25T09:37:11;12.23;;;2.60;;
28762;SDS011;15918;51.270;6.522;2023-04-25T09:39:37;12.57;;;3.28;;
28762;SDS011;15918;51.270;6.522;2023-04-25T09:42:04;13.25;;;2.72;;
28762;SDS011;15918;51.270;6.522;2023-04-25T09:44:30;6.68;;;2.30;;
28762;SDS011;15918;51.270;6.522;2023-04-25T09:46:56;12.43;;;2.63;;
28762;SDS011;15918;51.270;6.522;2023-04-25T09:49:22;11.30;;;3.15;;
28762;SDS011;15918;51.270;6.522;2023-04-25T09:51:57;8.88;;;3.00;;
28762;SDS011;15918;51.270;6.522;2023-04-25T09:54:24;7.70;;;2.50;;
28762;SDS011;15918;51.270;6.522;2023-04-25T09:56:51;8.35;;;2.92;;
28762;SDS011;15918;51.270;6.522;2023-04-25T09:59:21;9.15;;;2.88;;
28762;SDS011;15918;51.270;6.522;2023-04-25T10:01:49;12.35;;;2.92;;
28762;SDS011;15918;51.270;6.522;2023-04-25T10:04:20;11.45;;;2.58;;
28762;SDS011;15918;51.270;6.522;2023-04-25T10:06:51;11.10;;;2.50;;
28762;SDS011;15918;51.270;6.522;2023-04-25T10:09:19;11.90;;;2.72;;
28762;SDS011;15918;51.270;6.522;2023-04-25T10:11:46;8.55;;;2.45;;
28762;SDS011;15918;51.270;6.522;2023-04-25T10:14:15;14.82;;;3.05;;
28762;SDS011;15918;51.270;6.522;2023-04-25T10:16:41;14.70;;;3.42;;
28762;SDS011;15918;51.270;6.522;2023-04-25T10:19:09;8.93;;;2.72;;
28762;SDS011;15918;51.270;6.522;2023-04-25T10:21:35;10.40;;;3.15;;
28762;SDS011;15918;51.270;6.522;2023-04-25T10:24:09;10.35;;;3.35;;
28762;SDS011;15918;51.270;6.522;2023-04-25T10:26:35;7.43;;;2.80;;
28762;SDS011;15918;51.270;6.522;2023-04-25T10:29:02;10.95;;;3.22;;
28762;SDS011;15918;51.270;6.522;2023-04-25T10:31:31;13.35;;;3.08;;
28762;SDS011;15918;51.270;6.522;2023-04-25T10:33:57;10.27;;;2.83;;
28762;SDS011;15918;51.270;6.522;2023-04-25T10:36:25;9.60;;;3.25;;
28762;SDS011;15918;51.270;6.522;2023-04-25T10:38:52;11.63;;;2.65;;
28762;SDS011;15918;51.270;6.522;2023-04-25T10:41:19;9.70;;;2.72;;
28762;SDS011;15918;51.270;6.522;2023-04-25T10:43:46;10.63;;;3.22;;
28762;SDS011;15918;51.270;6.522;2023-04-25T10:48:44;12.32;;;2.88;;
28762;SDS011;15918;51.270;6.522;2023-04-25T10:53:46;6.53;;;2.53;;
28762;SDS011;15918;51.270;6.522;2023-04-25T10:59:14;10.93;;;3.28;;
28762;SDS011;15918;51.270;6.522;2023-04-25T11:01:43;17.85;;;4.70;;
28762;SDS011;15918;51.270;6.522;2023-04-25T11:04:30;8.05;;;3.30;;
28762;SDS011;15918;51.270;6.522;2023-04-25T11:09:35;7.85;;;2.88;;
28762;SDS011;15918;51.270;6.522;2023-04-25T11:12:02;9.15;;;2.92;;
28762;SDS011;15918;51.270;6.522;2023-04-25T11:14:28;9.20;;;2.92;;
28762;SDS011;15918;51.270;6.522;2023-04-25T11:16:54;9.68;;;2.88;;
28762;SDS011;15918;51.270;6.522;2023-04-25T11:19:21;7.53;;;2.88;;
28762;SDS011;15918;51.270;6.522;2023-04-25T11:21:47;9.30;;;3.10;;
28762;SDS011;15918;51.270;6.522;2023-04-25T11:24:13;8.32;;;3.13;;
28762;SDS011;15918;51.270;6.522;2023-04-25T11:26:38;12.95;;;2.50;;
28762;SDS011;15918;51.270;6.522;2023-04-25T11:29:07;11.90;;;3.28;;
28762;SDS011;15918;51.270;6.522;2023-04-25T11:31:32;9.45;;;2.88;;
28762;SDS011;15918;51.270;6.522;2023-04-25T11:33:58;12.10;;;2.70;;
28762;SDS011;15918;51.270;6.522;2023-04-25T11:36:25;8.88;;;2.70;;
28762;SDS011;15918;51.270;6.522;2023-04-25T11:38:51;7.45;;;3.08;;
28762;SDS011;15918;51.270;6.522;2023-04-25T11:41:18;8.10;;;3.03;;
28762;SDS011;15918;51.270;6.522;2023-04-25T11:43:45;11.15;;;3.28;;
28762;SDS011;15918;51.270;6.522;2023-04-25T11:46:10;9.25;;;3.20;;
28762;SDS011;15918;51.270;6.522;2023-04-25T11:48:37;8.68;;;2.58;;
28762;SDS011;15918;51.270;6.522;2023-04-25T11:51:04;7.45;;;2.53;;
28762;SDS011;15918;51.270;6.522;2023-04-25T11:53:29;5.93;;;3.10;;
28762;SDS011;15918;51.270;6.522;2023-04-25T11:55:55;6.00;;;2.80;;
28762;SDS011;15918;51.270;6.522;2023-04-25T11:58:21;7.85;;;3.10;;
28762;SDS011;15918;51.270;6.522;2023-04-25T12:00:46;9.63;;;3.15;;
28762;SDS011;15918;51.270;6.522;2023-04-25T12:03:12;6.05;;;2.83;;
28762;SDS011;15918;51.270;6.522;2023-04-25T12:05:38;8.93;;;2.70;;
28762;SDS011;15918;51.270;6.522;2023-04-25T12:08:14;12.07;;;2.90;;
28762;SDS011;15918;51.270;6.522;2023-04-25T12:13:21;6.93;;;2.33;;
28762;SDS011;15918;51.270;6.522;2023-04-25T12:15:48;6.93;;;2.78;;
28762;SDS011;15918;51.270;6.522;2023-04-25T12:18:14;8.27;;;2.45;;
28762;SDS011;15918;51.270;6.522;2023-04-25T12:20:43;7.45;;;2.30;;
28762;SDS011;15918;51.270;6.522;2023-04-25T12:23:09;4.10;;;2.22;;
28762;SDS011;15918;51.270;6.522;2023-04-25T12:25:40;8.43;;;2.13;;
28762;SDS011;15918;51.270;6.522;2023-04-25T12:28:13;5.75;;;1.80;;
28762;SDS011;15918;51.270;6.522;2023-04-25T12:33:26;4.83;;;1.50;;
28762;SDS011;15918;51.270;6.522;2023-04-25T12:35:53;4.18;;;1.60;;
28762;SDS011;15918;51.270;6.522;2023-04-25T12:40:47;5.40;;;1.52;;
28762;SDS011;15918;51.270;6.522;2023-04-25T12:43:13;4.25;;;1.35;;
28762;SDS011;15918;51.270;6.522;2023-04-25T12:45:39;4.70;;;1.67;;
28762;SDS011;15918;51.270;6.522;2023-04-25T12:48:05;5.10;;;1.70;;
28762;SDS011;15918;51.270;6.522;2023-04-25T12:50:30;5.10;;;1.95;;
28762;SDS011;15918;51.270;6.522;2023-04-25T12:52:56;6.47;;;3.10;;
28762;SDS011;15918;51.270;6.522;2023-04-25T12:55:22;5.95;;;2.17;;
28762;SDS011;15918;51.270;6.522;2023-04-25T12:57:48;5.70;;;2.25;;
28762;SDS011;15918;51.270;6.522;2023-04-25T13:00:13;4.05;;;2.28;;
28762;SDS011;15918;51.270;6.522;2023-04-25T13:02:40;7.15;;;1.92;;
28762;SDS011;15918;51.270;6.522;2023-04-25T13:05:06;4.78;;;1.65;;
28762;SDS011;15918;51.270;6.522;2023-04-25T13:07:32;6.75;;;1.60;;
28762;SDS011;15918;51.270;6.522;2023-04-25T13:09:58;4.65;;;1.92;;
28762;SDS011;15918;51.270;6.522;2023-04-25T13:12:23;3.42;;;1.45;;
28762;SDS011;15918;51.270;6.522;2023-04-25T13:14:49;4.80;;;1.70;;
28762;SDS011;15918;51.270;6.522;2023-04-25T13:17:15;4.15;;;1.75;;
28762;SDS011;15918;51.270;6.522;2023-04-25T13:19:40;6.35;;;1.60;;
28762;SDS011;15918;51.270;6.522;2023-04-25T13:22:06;5.63;;;1.70;;
28762;SDS011;15918;51.270;6.522;2023-04-25T13:24:31;4.65;;;1.48;;
28762;SDS011;15918;51.270;6.522;2023-04-25T13:26:57;6.30;;;1.88;;
28762;SDS011;15918;51.270;6.522;2023-04-25T13:29:22;4.45;;;1.73;;
28762;SDS011;15918;51.270;6.522;2023-04-25T13:31:48;7.57;;;2.35;;
28762;SDS011;15918;51.270;6.522;2023-04-25T13:34:14;5.40;;;2.38;;
28762;SDS011;15918;51.270;6.522;2023-04-25T13:36:39;5.40;;;2.08;;
28762;SDS011;15918;51.270;6.522;2023-04-25T13:39:05;7.15;;;2.15;;
28762;SDS011;15918;51.270;6.522;2023-04-25T13:41:31;7.78;;;2.40;;
28762;SDS011;15918;51.270;6.522;2023-04-25T13:43:57;5.00;;;1.92;;
28762;SDS011;15918;51.270;6.522;2023-04-25T13:46:24;6.30;;;2.03;;
28762;SDS011;15918;51.270;6.522;2023-04-25T13:48:49;7.63;;;2.17;;
28762;SDS011;15918;51.270;6.522;2023-04-25T13:51:15;7.95;;;2.55;;
28762;SDS011;15918;51.270;6.522;2023-04-25T13:53:42;10.27;;;2.35;;
28762;SDS011;15918;51.270;6.522;2023-04-25T13:56:08;7.78;;;2.10;;
28762;SDS011;15918;51.270;6.522;2023-04-25T13:58:33;6.60;;;2.15;;
28762;SDS011;15918;51.270;6.522;2023-04-25T14:00:59;7.60;;;2.42;;
28762;SDS011;15918;51.270;6.522;2023-04-25T14:03:25;9.45;;;2.95;;
28762;SDS011;15918;51.270;6.522;2023-04-25T14:05:50;6.70;;;2.55;;
28762;SDS011;15918;51.270;6.522;2023-04-25T14:08:16;8.20;;;2.67;;
28762;SDS011;15918;51.270;6.522;2023-04-25T14:10:41;8.30;;;2.65;;
28762;SDS011;15918;51.270;6.522;2023-04-25T14:13:07;9.30;;;1.95;;
28762;SDS011;15918;51.270;6.522;2023-04-25T14:15:33;6.53;;;2.10;;
28762;SDS011;15918;51.270;6.522;2023-04-25T14:17:59;6.90;;;2.50;;
28762;SDS011;15918;51.270;6.522;2023-04-25T14:20:26;10.18;;;2.20;;
28762;SDS011;15918;51.270;6.522;2023-04-25T14:22:52;5.65;;;2.08;;
28762;SDS011;15918;51.270;6.522;2023-04-25T14:25:19;8.93;;;2.28;;
28762;SDS011;15918;51.270;6.522;2023-04-25T14:27:45;9.55;;;2.10;;
28762;SDS011;15918;51.270;6.522;2023-04-25T14:30:14;3.67;;;2.03;;
28762;SDS011;15918;51.270;6.522;2023-04-25T14:32:41;8.60;;;2.60;;
28762;SDS011;15918;51.270;6.522;2023-04-25T14:35:07;8.15;;;2.35;;
28762;SDS011;15918;51.270;6.522;2023-04-25T14:37:33;8.23;;;2.38;;
28762;SDS011;15918;51.270;6.522;2023-04-25T14:39:58;9.85;;;2.38;;
28762;SDS011;15918;51.270;6.522;2023-04-25T14:42:24;7.93;;;2.13;;
28762;SDS011;15918;51.270;6.522;2023-04-25T14:44:49;5.72;;;2.25;;
28762;SDS011;15918;51.270;6.522;2023-04-25T14:47:15;8.02;;;2.63;;
28762;SDS011;15918;51.270;6.522;2023-04-25T14:49:41;8.82;;;3.38;;
28762;SDS011;15918;51.270;6.522;2023-04-25T14:52:07;6.88;;;2.72;;
28762;SDS011;15918;51.270;6.522;2023-04-25T14:54:32;9.43;;;3.03;;
28762;SDS011;15918;51.270;6.522;2023-04-25T14:56:58;9.73;;;2.78;;